createdAt,value
2023-02-14T00:01:55.849Z,22.42
2023-02-14T00:04:22.572Z,22.20
2023-02-14T00:06:49.290Z,22.33
2023-02-14T00:09:18.634Z,22.92
2023-02-14T00:11:45.721Z,21.15
2023-02-14T00:14:31.804Z,21.98
2023-02-14T00:16:58.631Z,22.73
2023-02-14T00:19:25.386Z,23.67
2023-02-14T00:21:52.352Z,22.08
2023-02-14T00:24:28.383Z,21.88
2023-02-14T00:26:55.123Z,21.63
2023-02-14T00:29:30.164Z,23.13
2023-02-14T00:31:57.115Z,21.95
2023-02-14T00:34:24.313Z,22.27
2023-02-14T00:36:51.166Z,21.50
2023-02-14T00:39:18.652Z,22.30
2023-02-14T00:41:45.690Z,21.42
2023-02-14T00:44:14.222Z,21.08
2023-02-14T00:46:41.332Z,21.52
2023-02-14T00:49:08.437Z,21.65
2023-02-14T00:51:35.475Z,21.58
2023-02-14T00:54:03.373Z,22.08
2023-02-14T00:56:31.013Z,21.92
2023-02-14T00:58:57.734Z,21.70
2023-02-14T01:01:24.463Z,21.52
2023-02-14T01:03:51.234Z,21.35
2023-02-14T01:06:19.002Z,21.25
2023-02-14T01:08:45.773Z,20.83
2023-02-14T01:11:21.618Z,21.40
2023-02-14T01:13:50.024Z,23.48
2023-02-14T01:16:20.053Z,22.38
2023-02-14T01:18:48.352Z,23.70
2023-02-14T01:21:17.943Z,24.17
2023-02-14T01:23:45.818Z,22.83
2023-02-14T01:26:13.626Z,23.33
2023-02-14T01:28:41.580Z,24.15
2023-02-14T01:31:14.061Z,22.70
2023-02-14T01:33:42.028Z,23.70
2023-02-14T01:36:19.435Z,22.08
2023-02-14T01:38:46.496Z,23.42
2023-02-14T01:41:13.796Z,22.50
2023-02-14T01:44:10.850Z,23.05
2023-02-14T01:46:38.046Z,23.75
2023-02-14T01:49:11.165Z,24.80
2023-02-14T01:51:46.469Z,24.63
2023-02-14T01:54:13.595Z,23.00
2023-02-14T01:56:49.291Z,23.30
2023-02-14T01:59:21.521Z,23.73
2023-02-14T02:01:50.689Z,23.80
2023-02-14T02:04:35.642Z,23.13
2023-02-14T02:07:07.348Z,23.70
2023-02-14T02:09:46.267Z,23.80
2023-02-14T02:12:13.500Z,23.75
2023-02-14T02:14:41.072Z,24.73
2023-02-14T02:17:43.030Z,23.40
2023-02-14T02:20:36.437Z,24.20
2023-02-14T02:23:34.217Z,23.67
2023-02-14T02:26:23.804Z,23.67
2023-02-14T02:29:11.336Z,23.80
2023-02-14T02:31:59.536Z,24.77
2023-02-14T02:35:07.449Z,23.85
2023-02-14T02:37:55.707Z,25.23
2023-02-14T02:40:49.119Z,25.20
2023-02-14T02:43:53.749Z,24.75
2023-02-14T02:46:49.771Z,24.58
2023-02-14T02:49:59.776Z,24.40
2023-02-14T02:53:04.219Z,24.33
2023-02-14T02:55:51.664Z,24.85
2023-02-14T02:58:20.344Z,24.35
2023-02-14T03:00:50.311Z,23.95
2023-02-14T03:03:36.420Z,24.25
2023-02-14T03:06:03.359Z,24.38
2023-02-14T03:08:30.090Z,22.98
2023-02-14T03:10:57.622Z,23.30
2023-02-14T03:13:42.282Z,24.08
2023-02-14T03:16:11.869Z,22.92
2023-02-14T03:19:31.114Z,21.75
2023-02-14T03:22:11.671Z,23.17
2023-02-14T03:24:49.766Z,23.23
2023-02-14T03:27:32.755Z,22.55
2023-02-14T03:30:02.701Z,22.75
2023-02-14T03:32:48.078Z,23.30
2023-02-14T03:35:36.620Z,22.90
2023-02-14T03:38:15.558Z,23.45
2023-02-14T03:40:54.604Z,23.05
2023-02-14T03:43:28.369Z,24.25
2023-02-14T03:46:02.312Z,23.48
2023-02-14T03:48:31.119Z,23.38
2023-02-14T03:51:00.484Z,22.60
2023-02-14T03:53:31.682Z,22.20
2023-02-14T03:56:13.087Z,23.52
2023-02-14T03:58:46.909Z,23.05
2023-02-14T04:01:19.362Z,23.17
2023-02-14T04:03:47.370Z,22.48
2023-02-14T04:06:14.215Z,23.25
2023-02-14T04:08:40.941Z,22.88
2023-02-14T04:11:07.644Z,22.67
2023-02-14T04:13:36.829Z,23.15
2023-02-14T04:16:03.876Z,23.50
2023-02-14T04:18:49.337Z,22.65
2023-02-14T04:21:16.670Z,22.80
2023-02-14T04:23:43.330Z,23.75
2023-02-14T04:26:10.058Z,23.05
2023-02-14T04:28:36.747Z,23.83
2023-02-14T04:31:06.740Z,24.85
2023-02-14T04:33:34.306Z,24.85
2023-02-14T04:36:01.177Z,23.58
2023-02-14T04:38:27.799Z,23.67
2023-02-14T04:40:54.485Z,24.08
2023-02-14T04:43:21.205Z,23.58
2023-02-14T04:45:47.933Z,23.02
2023-02-14T04:48:14.806Z,23.02
2023-02-14T04:50:41.517Z,24.17
2023-02-14T04:53:10.893Z,23.48
2023-02-14T04:55:37.639Z,23.08
2023-02-14T04:58:04.298Z,22.85
2023-02-14T05:00:31.031Z,23.25
2023-02-14T05:02:57.698Z,23.25
2023-02-14T05:05:24.332Z,24.02
2023-02-14T05:07:51.045Z,24.73
2023-02-14T05:10:17.784Z,23.08
2023-02-14T05:12:44.685Z,23.27
2023-02-14T05:15:11.282Z,24.08
2023-02-14T05:17:37.964Z,23.25
2023-02-14T05:20:05.940Z,23.90
2023-02-14T05:22:32.610Z,24.15
2023-02-14T05:24:59.206Z,23.58
2023-02-14T05:27:25.936Z,23.35
2023-02-14T05:29:52.630Z,24.33
2023-02-14T05:32:19.295Z,23.80
2023-02-14T05:34:45.967Z,23.67
2023-02-14T05:37:12.610Z,24.30
2023-02-14T05:39:39.355Z,24.92
2023-02-14T05:42:06.011Z,25.00
2023-02-14T05:44:32.786Z,24.27
2023-02-14T05:46:59.438Z,24.98
2023-02-14T05:49:26.188Z,23.98
2023-02-14T05:51:52.983Z,25.35
2023-02-14T05:54:19.666Z,24.52
2023-02-14T05:56:46.371Z,25.85
2023-02-14T05:59:14.556Z,25.52
2023-02-14T06:01:41.240Z,26.60
2023-02-14T06:04:07.915Z,26.08
2023-02-14T06:06:36.578Z,25.30
2023-02-14T06:09:03.576Z,26.75
2023-02-14T06:11:30.303Z,30.00
2023-02-14T06:13:56.945Z,27.05
2023-02-14T06:16:23.749Z,28.75
2023-02-14T06:18:50.491Z,27.70
2023-02-14T06:21:17.188Z,26.23
2023-02-14T06:23:43.837Z,27.70
2023-02-14T06:26:10.523Z,26.85
2023-02-14T06:28:37.233Z,28.40
2023-02-14T06:31:04.399Z,27.20
2023-02-14T06:33:31.335Z,27.73
2023-02-14T06:35:58.040Z,27.67
2023-02-14T06:38:24.766Z,29.25
2023-02-14T06:40:51.441Z,27.83
2023-02-14T06:43:18.101Z,29.05
2023-02-14T06:45:46.673Z,27.42
2023-02-14T06:48:13.381Z,28.70
2023-02-14T06:50:40.115Z,28.80
2023-02-14T06:53:06.850Z,27.98
2023-02-14T06:55:33.509Z,29.05
2023-02-14T06:58:00.166Z,28.50
2023-02-14T07:00:26.989Z,29.20
2023-02-14T07:02:53.676Z,28.17
2023-02-14T07:05:20.398Z,30.63
2023-02-14T07:07:47.108Z,30.30
2023-02-14T07:10:14.648Z,28.70
2023-02-14T07:12:41.350Z,29.85
2023-02-14T07:15:09.651Z,28.38
2023-02-14T07:17:36.506Z,29.02
2023-02-14T07:20:03.913Z,28.90
2023-02-14T07:22:30.598Z,28.58
2023-02-14T07:24:57.291Z,28.05
2023-02-14T07:27:24.286Z,28.08
2023-02-14T07:29:51.012Z,27.58
2023-02-14T07:32:18.120Z,28.08
2023-02-14T07:34:45.008Z,28.33
2023-02-14T07:37:11.771Z,27.92
2023-02-14T07:39:38.393Z,28.33
2023-02-14T07:42:05.132Z,27.02
2023-02-14T07:44:32.572Z,28.52
2023-02-14T07:46:59.277Z,28.02
2023-02-14T07:49:26.037Z,29.05
2023-02-14T07:51:52.909Z,27.42
2023-02-14T07:54:20.340Z,26.73
2023-02-14T07:56:47.133Z,27.20
2023-02-14T07:59:13.930Z,28.02
2023-02-14T08:01:40.691Z,27.02
2023-02-14T08:04:07.417Z,27.65
2023-02-14T08:06:34.170Z,27.08
2023-02-14T08:09:00.944Z,27.33
2023-02-14T08:11:46.085Z,27.50
2023-02-14T08:14:12.740Z,26.35
2023-02-14T08:16:39.796Z,27.13
2023-02-14T08:19:06.661Z,26.88
2023-02-14T08:21:33.776Z,26.30
2023-02-14T08:24:00.834Z,27.08
2023-02-14T08:26:27.616Z,26.98
2023-02-14T08:28:54.507Z,25.80
2023-02-14T08:31:34.294Z,26.17
2023-02-14T08:34:02.152Z,26.88
2023-02-14T08:36:28.852Z,25.75
2023-02-14T08:38:56.104Z,24.35
2023-02-14T08:41:22.835Z,25.20
2023-02-14T08:43:50.149Z,25.85
2023-02-14T08:46:17.301Z,23.98
2023-02-14T08:48:44.359Z,23.23
2023-02-14T08:51:13.724Z,24.20
2023-02-14T08:53:41.880Z,23.13
2023-02-14T08:56:10.506Z,24.27
2023-02-14T08:58:38.750Z,23.33
2023-02-14T09:01:16.946Z,21.52
2023-02-14T09:03:44.444Z,19.90
2023-02-14T09:06:14.523Z,21.15
2023-02-14T09:08:41.250Z,19.23
2023-02-14T09:11:12.206Z,18.85
2023-02-14T09:13:38.993Z,18.77
2023-02-14T09:16:07.508Z,18.92
2023-02-14T09:18:34.463Z,19.25
2023-02-14T09:21:01.753Z,19.60
2023-02-14T09:23:28.714Z,19.40
2023-02-14T09:26:03.589Z,18.83
2023-02-14T09:28:31.145Z,18.63
2023-02-14T09:30:59.034Z,18.70
2023-02-14T09:33:29.227Z,17.70
2023-02-14T09:36:16.515Z,17.58
2023-02-14T09:38:43.223Z,17.88
2023-02-14T09:41:20.338Z,17.30
2023-02-14T09:44:01.599Z,18.42
2023-02-14T09:46:30.986Z,19.33
2023-02-14T09:48:59.631Z,18.52
2023-02-14T09:51:29.396Z,18.52
2023-02-14T09:54:05.758Z,18.25
2023-02-14T09:59:39.634Z,18.27
2023-02-14T10:02:06.799Z,18.70
2023-02-14T10:05:02.899Z,18.90
2023-02-14T10:07:54.297Z,20.20
2023-02-14T10:10:23.622Z,17.35
2023-02-14T10:12:56.698Z,17.98
2023-02-14T10:15:40.588Z,18.58
2023-02-14T10:18:19.301Z,18.60
2023-02-14T10:20:53.130Z,18.95
2023-02-14T10:23:38.266Z,19.23
2023-02-14T10:26:12.771Z,18.67
2023-02-14T10:28:45.429Z,19.25
2023-02-14T10:31:41.796Z,19.42
2023-02-14T10:34:32.791Z,18.90
2023-02-14T10:37:37.978Z,18.73
2023-02-14T10:40:17.556Z,17.70
2023-02-14T10:42:59.481Z,19.10
2023-02-14T10:45:53.561Z,17.85
2023-02-14T10:48:37.500Z,18.13
2023-02-14T10:51:15.424Z,18.60
2023-02-14T10:53:51.276Z,20.13
2023-02-14T10:56:41.184Z,20.63
2023-02-14T10:59:25.820Z,18.48
2023-02-14T11:01:54.290Z,19.23
2023-02-14T11:04:23.874Z,19.05
2023-02-14T11:06:50.994Z,18.20
2023-02-14T11:09:18.327Z,17.92
2023-02-14T11:11:57.237Z,17.00
2023-02-14T11:14:28.696Z,18.52
2023-02-14T11:16:57.819Z,18.85
2023-02-14T11:19:37.491Z,18.98
2023-02-14T11:22:04.763Z,19.52
2023-02-14T11:24:33.027Z,18.45
2023-02-14T11:27:17.306Z,18.17
2023-02-14T11:29:48.190Z,19.15
2023-02-14T11:32:22.613Z,19.50
2023-02-14T11:34:52.594Z,18.55
2023-02-14T11:37:22.092Z,18.67
2023-02-14T11:39:57.893Z,19.92
2023-02-14T11:42:42.650Z,19.88
2023-02-14T11:45:32.783Z,18.42
2023-02-14T11:48:24.831Z,18.45
2023-02-14T11:51:04.590Z,19.38
2023-02-14T11:53:48.840Z,18.95
2023-02-14T11:56:17.677Z,19.17
2023-02-14T11:59:03.046Z,20.02
2023-02-14T12:01:35.546Z,19.63
2023-02-14T12:04:06.241Z,20.08
2023-02-14T12:06:35.616Z,20.63
2023-02-14T12:09:23.739Z,20.92
2023-02-14T12:12:00.947Z,20.92
2023-02-14T12:14:34.201Z,19.48
2023-02-14T12:17:25.221Z,18.75
2023-02-14T12:20:00.941Z,20.45
2023-02-14T12:22:41.251Z,20.30
2023-02-14T12:25:26.168Z,20.20
2023-02-14T12:28:01.472Z,20.27
2023-02-14T12:30:32.474Z,20.08
2023-02-14T12:33:00.031Z,19.48
2023-02-14T12:35:57.614Z,18.27
2023-02-14T12:38:52.429Z,18.77
2023-02-14T12:41:25.002Z,18.65
2023-02-14T12:43:55.849Z,19.15
2023-02-14T12:46:40.494Z,19.50
2023-02-14T12:49:28.373Z,20.38
2023-02-14T12:52:22.560Z,19.60
2023-02-14T12:55:16.945Z,18.95
2023-02-14T12:58:28.453Z,19.77
2023-02-14T13:01:10.046Z,19.58
2023-02-14T13:03:48.925Z,19.27
2023-02-14T13:06:22.112Z,19.80
2023-02-14T13:08:51.700Z,19.40
2023-02-14T13:11:34.507Z,19.98
2023-02-14T13:14:29.829Z,18.38
2023-02-14T13:17:07.486Z,17.85
2023-02-14T13:19:46.215Z,19.30
2023-02-14T13:22:20.722Z,18.75
2023-02-14T13:24:50.577Z,19.27
2023-02-14T13:27:23.857Z,19.33
2023-02-14T13:29:55.932Z,19.63
2023-02-14T13:32:27.404Z,18.92
2023-02-14T13:34:54.836Z,18.00
2023-02-14T13:37:24.707Z,19.20
2023-02-14T13:39:51.333Z,18.13
2023-02-14T13:42:46.831Z,19.17
2023-02-14T13:45:37.346Z,20.02
2023-02-14T13:48:06.830Z,19.60
2023-02-14T13:50:49.768Z,18.90
2023-02-14T13:53:31.668Z,19.48
2023-02-14T13:55:59.132Z,18.42
2023-02-14T13:58:26.289Z,19.48
2023-02-14T14:00:53.573Z,19.58
2023-02-14T14:03:26.235Z,19.10
2023-02-14T14:06:08.711Z,19.15
2023-02-14T14:08:38.404Z,19.25
2023-02-14T14:11:22.321Z,18.42
2023-02-14T14:13:57.315Z,19.88
2023-02-14T14:16:24.418Z,19.52
2023-02-14T14:19:18.105Z,19.95
2023-02-14T14:22:07.198Z,19.02
2023-02-14T14:24:36.128Z,18.98
2023-02-14T14:27:21.835Z,18.65
2023-02-14T14:29:55.972Z,18.88
2023-02-14T14:32:39.085Z,20.15
2023-02-14T14:35:13.627Z,18.27
2023-02-14T14:37:53.124Z,18.88
2023-02-14T14:40:32.690Z,19.38
2023-02-14T14:43:22.782Z,21.02
2023-02-14T14:45:53.413Z,19.42
2023-02-14T14:48:55.947Z,19.80
2023-02-14T14:51:34.528Z,19.85
2023-02-14T14:54:05.886Z,19.67
2023-02-14T14:56:37.097Z,18.48
2023-02-14T14:59:25.991Z,19.42
2023-02-14T15:01:54.436Z,19.08
2023-02-14T15:04:30.001Z,18.63
2023-02-14T15:06:58.645Z,18.45
2023-02-14T15:09:33.725Z,18.73
2023-02-14T15:12:20.815Z,19.45
2023-02-14T15:14:54.589Z,18.08
2023-02-14T15:17:28.470Z,18.00
2023-02-14T15:20:05.624Z,18.52
2023-02-14T15:22:44.828Z,18.42
2023-02-14T15:25:18.361Z,19.13
2023-02-14T15:27:45.573Z,18.40
2023-02-14T15:30:34.105Z,18.27
2023-02-14T15:33:06.080Z,18.58
2023-02-14T15:35:36.879Z,19.48
2023-02-14T15:38:06.606Z,19.45
2023-02-14T15:40:35.616Z,19.65
2023-02-14T15:43:25.043Z,19.90
2023-02-14T15:45:57.397Z,19.00
2023-02-14T15:48:34.606Z,19.17
2023-02-14T15:51:05.011Z,19.00
2023-02-14T15:53:44.554Z,18.88
2023-02-14T15:56:26.174Z,18.83
2023-02-14T15:58:59.985Z,18.75
2023-02-14T16:01:27.360Z,19.05
2023-02-14T16:03:58.031Z,18.25
2023-02-14T16:06:44.547Z,19.13
2023-02-14T16:09:28.965Z,18.95
2023-02-14T16:11:55.674Z,18.55
2023-02-14T16:14:35.306Z,18.52
2023-02-14T16:17:11.103Z,19.00
2023-02-14T16:19:39.077Z,18.92
2023-02-14T16:22:07.125Z,18.30
2023-02-14T16:24:34.546Z,18.33
2023-02-14T16:27:06.780Z,17.95
2023-02-14T16:29:35.589Z,21.65
2023-02-14T16:32:17.792Z,20.75
2023-02-14T16:34:47.199Z,19.77
2023-02-14T16:37:30.169Z,24.40
2023-02-14T16:39:57.857Z,19.85
2023-02-14T16:42:25.213Z,18.75
2023-02-14T16:44:51.948Z,17.70
2023-02-14T16:47:20.332Z,18.55
2023-02-14T16:49:47.419Z,19.63
2023-02-14T16:52:17.758Z,18.20
2023-02-14T16:54:44.626Z,18.17
2023-02-14T16:57:40.976Z,18.20
2023-02-14T17:00:09.559Z,17.35
2023-02-14T17:02:36.966Z,17.90
2023-02-14T17:05:04.999Z,18.00
2023-02-14T17:07:32.868Z,18.10
2023-02-14T17:10:05.849Z,17.88
2023-02-14T17:12:36.413Z,17.67
2023-02-14T17:15:08.399Z,18.30
2023-02-14T17:17:37.136Z,18.73
2023-02-14T17:20:06.245Z,17.98
2023-02-14T17:22:34.448Z,17.08
2023-02-14T17:25:01.237Z,17.58
2023-02-14T17:27:27.901Z,18.77
2023-02-14T17:29:54.647Z,18.83
2023-02-14T17:32:21.385Z,19.90
2023-02-14T17:34:49.314Z,20.50
2023-02-14T17:37:18.772Z,21.33
2023-02-14T17:39:45.724Z,19.80
2023-02-14T17:42:12.384Z,19.98
2023-02-14T17:44:39.283Z,20.02
2023-02-14T17:47:06.463Z,19.23
2023-02-14T17:49:33.349Z,18.42
2023-02-14T17:52:00.081Z,18.48
2023-02-14T17:54:26.738Z,18.17
2023-02-14T17:56:53.496Z,18.52
2023-02-14T17:59:20.411Z,19.00
2023-02-14T18:01:47.159Z,18.40
2023-02-14T18:04:13.887Z,18.80
2023-02-14T18:06:40.702Z,18.17
2023-02-14T18:09:07.469Z,18.67
2023-02-14T18:11:34.215Z,18.48
2023-02-14T18:14:01.776Z,17.90
2023-02-14T18:16:28.600Z,18.98
2023-02-14T18:18:55.310Z,19.00
2023-02-14T18:21:24.174Z,18.95
2023-02-14T18:23:50.960Z,18.30
2023-02-14T18:26:18.532Z,19.65
2023-02-14T18:28:45.666Z,18.85
2023-02-14T18:31:14.734Z,18.73
2023-02-14T18:33:42.360Z,19.38
2023-02-14T18:36:14.471Z,18.27
2023-02-14T18:38:43.281Z,19.58
2023-02-14T18:41:13.212Z,19.08
2023-02-14T18:43:44.465Z,18.92
2023-02-14T18:46:13.698Z,19.02
2023-02-14T18:48:40.729Z,19.63
2023-02-14T18:51:09.445Z,19.45
2023-02-14T18:53:37.460Z,18.77
2023-02-14T18:56:06.631Z,19.58
2023-02-14T18:58:34.226Z,18.70
2023-02-14T19:01:09.289Z,19.80
2023-02-14T19:03:36.334Z,20.35
2023-02-14T19:06:03.332Z,18.95
2023-02-14T19:08:32.309Z,19.90
2023-02-14T19:10:59.578Z,19.95
2023-02-14T19:13:29.220Z,21.13
2023-02-14T19:15:56.463Z,20.83
2023-02-14T19:18:25.400Z,21.55
2023-02-14T19:20:52.986Z,21.38
2023-02-14T19:23:19.856Z,21.35
2023-02-14T19:25:46.513Z,21.95
2023-02-14T19:28:13.552Z,22.15
2023-02-14T19:30:40.384Z,22.08
2023-02-14T19:33:07.169Z,21.63
2023-02-14T19:35:33.951Z,22.42
2023-02-14T19:38:03.439Z,21.80
2023-02-14T19:40:30.911Z,22.95
2023-02-14T19:42:57.822Z,22.92
2023-02-14T19:45:24.651Z,23.58
2023-02-14T19:47:51.825Z,23.63
2023-02-14T19:50:19.424Z,24.35
2023-02-14T19:52:47.064Z,25.23
2023-02-14T19:55:21.914Z,24.08
2023-02-14T19:57:48.576Z,25.50
2023-02-14T20:00:16.317Z,25.00
2023-02-14T20:02:48.038Z,26.27
2023-02-14T20:05:16.583Z,23.90
2023-02-14T20:07:43.737Z,26.52
2023-02-14T20:10:11.876Z,27.52
2023-02-14T20:12:39.029Z,28.15
2023-02-14T20:15:06.229Z,27.15
2023-02-14T20:17:33.409Z,28.27
2023-02-14T20:20:00.217Z,28.67
2023-02-14T20:22:26.996Z,28.13
2023-02-14T20:24:53.698Z,27.08
2023-02-14T20:27:20.576Z,28.33
2023-02-14T20:29:47.319Z,27.35
2023-02-14T20:32:15.932Z,30.10
2023-02-14T20:34:42.998Z,29.30
2023-02-14T20:37:11.148Z,29.25
2023-02-14T20:39:38.595Z,30.42
2023-02-14T20:42:06.051Z,29.48
2023-02-14T20:44:33.795Z,30.30
2023-02-14T20:47:00.612Z,29.30
2023-02-14T20:49:28.480Z,30.55
2023-02-14T20:51:56.081Z,29.65
2023-02-14T20:54:24.945Z,30.77
2023-02-14T20:56:52.860Z,31.60
2023-02-14T20:59:24.340Z,32.90
2023-02-14T21:01:51.509Z,32.13
2023-02-14T21:04:18.148Z,31.23
2023-02-14T21:06:44.849Z,30.48
2023-02-14T21:09:11.525Z,31.63
2023-02-14T21:11:39.556Z,32.53
2023-02-14T21:14:06.360Z,32.08
2023-02-14T21:16:33.205Z,31.52
2023-02-14T21:19:00.203Z,31.27
2023-02-14T21:21:36.064Z,31.85
2023-02-14T21:24:14.670Z,32.30
2023-02-14T21:26:42.607Z,31.98
2023-02-14T21:29:09.792Z,34.25
2023-02-14T21:31:37.247Z,33.35
2023-02-14T21:34:04.870Z,34.13
2023-02-14T21:36:35.922Z,34.22
2023-02-14T21:39:03.770Z,34.33
2023-02-14T21:41:31.202Z,33.03
2023-02-14T21:43:59.620Z,34.20
2023-02-14T21:46:38.871Z,34.33
2023-02-14T21:49:25.385Z,33.20
2023-02-14T21:51:52.128Z,33.85
2023-02-14T21:54:19.003Z,34.50
2023-02-14T21:56:46.040Z,36.33
2023-02-14T21:59:12.829Z,34.80
2023-02-14T22:01:41.828Z,35.75
2023-02-14T22:04:10.935Z,35.88
2023-02-14T22:06:39.201Z,34.25
2023-02-14T22:09:07.014Z,34.65
2023-02-14T22:11:34.696Z,34.17
2023-02-14T22:14:02.022Z,35.13
2023-02-14T22:16:28.788Z,36.97
2023-02-14T22:18:55.630Z,35.67
2023-02-14T22:21:24.478Z,35.10
2023-02-14T22:23:51.417Z,35.83
2023-02-14T22:26:23.717Z,37.40
2023-02-14T22:28:53.823Z,36.65
2023-02-14T22:31:20.816Z,38.17
2023-02-14T22:33:48.832Z,38.03
2023-02-14T22:36:16.032Z,39.15
2023-02-14T22:38:42.997Z,39.55
2023-02-14T22:41:13.960Z,39.05
2023-02-14T22:43:41.872Z,39.83
2023-02-14T22:46:20.235Z,36.58
2023-02-14T22:48:48.585Z,38.97
2023-02-14T22:51:35.897Z,38.17
2023-02-14T22:54:06.123Z,39.42
2023-02-14T22:56:35.613Z,37.72
2023-02-14T22:59:05.463Z,37.13
2023-02-14T23:01:34.790Z,37.28
2023-02-14T23:04:03.290Z,34.72
2023-02-14T23:06:32.447Z,34.35
2023-02-14T23:08:59.335Z,32.95
2023-02-14T23:11:29.069Z,31.63
2023-02-14T23:14:14.762Z,33.33
2023-02-14T23:17:01.220Z,34.20
2023-02-14T23:19:49.046Z,32.78
2023-02-14T23:22:23.711Z,33.88
2023-02-14T23:24:52.236Z,34.25
2023-02-14T23:27:22.012Z,33.53
2023-02-14T23:29:48.930Z,32.38
2023-02-14T23:32:16.505Z,32.67
2023-02-14T23:34:45.005Z,33.00
2023-02-14T23:37:13.642Z,33.45
2023-02-14T23:39:40.857Z,29.27
2023-02-14T23:42:11.015Z,34.97
2023-02-14T23:44:37.979Z,34.33
2023-02-14T23:47:06.499Z,35.03
2023-02-14T23:49:34.907Z,34.47
2023-02-14T23:52:02.108Z,33.67
2023-02-14T23:54:29.021Z,34.88
2023-02-14T23:56:57.632Z,34.63
2023-02-14T23:59:24.528Z,33.92
